createdAt,value
2022-11-18T00:00:05.064Z,10.38
2022-11-18T00:03:06.861Z,10.41
2022-11-18T00:06:12.264Z,10.39
2022-11-18T00:09:13.708Z,10.41
2022-11-18T00:12:33.780Z,10.46
2022-11-18T00:15:35.180Z,10.44
2022-11-18T00:18:37.276Z,10.44
2022-11-18T00:21:38.682Z,10.42
2022-11-18T00:24:40.102Z,10.42
2022-11-18T00:27:41.485Z,10.41
2022-11-18T00:30:42.892Z,10.44
2022-11-18T00:33:44.305Z,10.44
2022-11-18T00:36:47.090Z,10.45
2022-11-18T00:39:48.487Z,10.47
2022-11-18T00:42:53.588Z,10.49
2022-11-18T00:45:55.077Z,10.52
2022-11-18T00:48:56.465Z,10.55
2022-11-18T00:52:01.198Z,10.48
2022-11-18T00:55:02.620Z,10.48
2022-11-18T00:58:04.016Z,10.49
2022-11-18T01:01:05.971Z,10.48
2022-11-18T01:04:07.484Z,10.42
2022-11-18T01:07:08.986Z,10.37
2022-11-18T01:10:10.505Z,10.38
2022-11-18T01:13:21.129Z,10.41
2022-11-18T01:16:25.150Z,10.45
2022-11-18T01:19:27.065Z,10.49
2022-11-18T01:22:28.477Z,10.51
2022-11-18T01:25:30.330Z,10.44
2022-11-18T01:28:32.244Z,10.48
2022-11-18T01:31:33.640Z,10.53
2022-11-18T01:34:35.267Z,10.56
2022-11-18T01:37:37.221Z,10.59
2022-11-18T01:40:39.165Z,10.59
2022-11-18T01:44:28.192Z,10.56
2022-11-18T01:47:40.236Z,10.48
2022-11-18T01:50:49.421Z,10.41
2022-11-18T01:54:02.328Z,10.40
2022-11-18T01:57:08.304Z,10.45
2022-11-18T02:00:10.562Z,10.48
2022-11-18T02:03:12.186Z,10.49
2022-11-18T02:06:13.847Z,10.48
2022-11-18T02:09:16.829Z,10.48
2022-11-18T02:12:19.368Z,10.41
2022-11-18T02:15:32.593Z,10.39
2022-11-18T02:18:43.535Z,10.41
2022-11-18T02:22:09.496Z,10.41
2022-11-18T02:25:54.142Z,10.43
2022-11-18T02:29:08.515Z,10.38
2022-11-18T02:32:17.249Z,10.33
2022-11-18T02:35:21.359Z,10.29
2022-11-18T02:38:34.740Z,10.31
2022-11-18T02:41:39.435Z,10.24
2022-11-18T02:44:46.019Z,10.26
2022-11-18T02:47:49.468Z,10.25
2022-11-18T02:50:52.644Z,10.18
2022-11-18T02:53:59.477Z,10.21
2022-11-18T02:57:02.895Z,10.16
2022-11-18T03:00:04.892Z,10.18
2022-11-18T03:03:27.234Z,10.18
2022-11-18T03:06:41.218Z,10.16
2022-11-18T03:09:45.695Z,10.12
2022-11-18T03:13:08.024Z,10.15
2022-11-18T03:16:17.120Z,10.18
2022-11-18T03:19:35.573Z,10.20
2022-11-18T03:22:47.628Z,10.12
2022-11-18T03:26:03.531Z,10.11
2022-11-18T03:29:10.321Z,10.14
2022-11-18T03:32:28.449Z,10.09
2022-11-18T03:35:33.651Z,10.08
2022-11-18T03:38:41.145Z,10.15
2022-11-18T03:42:02.445Z,10.15
2022-11-18T03:45:10.735Z,10.12
2022-11-18T03:48:22.428Z,10.15
2022-11-18T03:51:30.127Z,10.17
2022-11-18T03:54:33.924Z,10.17
2022-11-18T03:57:54.045Z,10.17
2022-11-18T04:01:01.716Z,10.23
2022-11-18T04:04:03.431Z,10.20
2022-11-18T04:07:04.826Z,10.15
2022-11-18T04:10:35.600Z,10.11
2022-11-18T04:13:37.832Z,10.25
2022-11-18T04:16:43.437Z,10.14
2022-11-18T04:19:44.864Z,10.11
2022-11-18T04:22:46.416Z,10.07
2022-11-18T04:25:47.829Z,10.14
2022-11-18T04:28:49.214Z,10.05
2022-11-18T04:31:50.918Z,10.03
2022-11-18T04:34:52.324Z,10.13
2022-11-18T04:37:54.191Z,9.98
2022-11-18T04:40:55.572Z,9.99
2022-11-18T04:43:56.952Z,9.95
2022-11-18T04:47:00.745Z,9.98
2022-11-18T04:50:02.128Z,10.04
2022-11-18T04:53:03.524Z,9.98
2022-11-18T04:56:06.769Z,10.01
2022-11-18T04:59:09.746Z,9.97
2022-11-18T05:02:11.242Z,9.94
2022-11-18T05:05:12.687Z,9.97
2022-11-18T05:08:14.084Z,9.96
2022-11-18T05:11:34.559Z,9.98
2022-11-18T05:14:36.071Z,10.00
2022-11-18T05:17:37.504Z,9.93
2022-11-18T05:20:41.784Z,9.91
2022-11-18T05:23:43.485Z,9.90
2022-11-18T05:26:45.293Z,9.82
2022-11-18T05:29:46.697Z,9.73
2022-11-18T05:32:48.092Z,9.72
2022-11-18T05:35:53.929Z,9.75
2022-11-18T05:38:59.473Z,9.85
2022-11-18T05:42:19.880Z,9.70
2022-11-18T05:45:21.363Z,9.61
2022-11-18T05:48:23.089Z,9.64
2022-11-18T05:51:24.505Z,9.64
2022-11-18T05:54:26.486Z,9.56
2022-11-18T05:57:27.860Z,9.59
2022-11-18T06:00:30.752Z,9.65
2022-11-18T06:03:36.565Z,9.56
2022-11-18T06:06:38.262Z,9.56
2022-11-18T06:09:44.717Z,9.54
2022-11-18T06:12:49.698Z,9.46
2022-11-18T06:15:51.305Z,9.31
2022-11-18T06:18:52.992Z,9.45
2022-11-18T06:21:54.680Z,9.39
2022-11-18T06:24:56.103Z,9.41
2022-11-18T06:28:00.503Z,9.46
2022-11-18T06:31:02.177Z,9.34
2022-11-18T06:34:03.580Z,9.31
2022-11-18T06:37:15.296Z,9.28
2022-11-18T06:40:17.092Z,9.26
2022-11-18T06:43:37.126Z,9.17
2022-11-18T06:46:56.598Z,9.32
2022-11-18T06:49:58.052Z,9.35
2022-11-18T06:53:01.315Z,9.39
2022-11-18T06:56:10.868Z,9.33
2022-11-18T06:59:12.876Z,9.39
2022-11-18T07:02:14.332Z,9.36
2022-11-18T07:05:15.811Z,9.36
2022-11-18T07:08:17.197Z,9.30
2022-11-18T07:11:22.004Z,9.34
2022-11-18T07:14:23.635Z,9.35
2022-11-18T07:17:25.549Z,9.40
2022-11-18T07:20:27.166Z,9.40
2022-11-18T07:23:30.016Z,9.39
2022-11-18T07:26:31.481Z,9.30
2022-11-18T07:29:32.866Z,9.33
2022-11-18T07:32:34.365Z,9.19
2022-11-18T07:35:35.755Z,9.20
2022-11-18T07:38:37.394Z,9.22
2022-11-18T07:41:40.120Z,9.18
2022-11-18T07:44:41.500Z,9.18
2022-11-18T07:47:42.912Z,9.23
2022-11-18T07:50:47.219Z,9.26
2022-11-18T07:53:48.888Z,9.34
2022-11-18T07:56:50.267Z,9.20
2022-11-18T07:59:51.649Z,9.22
2022-11-18T08:02:53.016Z,9.24
2022-11-18T08:06:04.747Z,9.23
2022-11-18T08:09:07.037Z,9.26
2022-11-18T08:12:08.634Z,9.25
2022-11-18T08:15:10.460Z,9.28
2022-11-18T08:18:13.880Z,9.27
2022-11-18T08:21:18.273Z,9.24
2022-11-18T08:24:19.656Z,9.27
2022-11-18T08:27:21.264Z,9.33
2022-11-18T08:30:22.722Z,9.30
2022-11-18T08:33:24.280Z,9.22
2022-11-18T08:36:28.155Z,9.25
2022-11-18T08:39:29.546Z,9.36
2022-11-18T08:42:34.277Z,9.33
2022-11-18T08:45:37.925Z,9.34
2022-11-18T08:48:39.580Z,9.33
2022-11-18T08:51:41.139Z,9.31
2022-11-18T08:54:42.537Z,9.33
2022-11-18T08:57:43.963Z,9.41
2022-11-18T09:00:45.344Z,9.44
2022-11-18T09:03:47.244Z,9.41
2022-11-18T09:06:48.645Z,9.42
2022-11-18T09:09:50.248Z,9.53
2022-11-18T09:12:51.685Z,9.62
2022-11-18T09:15:53.146Z,9.55
2022-11-18T09:18:56.254Z,9.54
2022-11-18T09:21:57.715Z,9.61
2022-11-18T09:24:59.091Z,9.64
2022-11-18T09:28:00.475Z,9.76
2022-11-18T09:31:07.896Z,9.70
2022-11-18T09:34:10.271Z,9.76
2022-11-18T09:37:11.714Z,9.74
2022-11-18T09:40:18.194Z,9.82
2022-11-18T09:43:44.460Z,9.92
2022-11-18T09:47:02.935Z,9.94
2022-11-18T09:50:41.548Z,10.02
2022-11-18T09:53:35.241Z,10.00
2022-11-18T09:56:36.707Z,9.95
2022-11-18T09:59:38.280Z,10.10
2022-11-18T10:03:04.732Z,10.09
2022-11-18T10:06:09.727Z,9.97
2022-11-18T10:09:51.901Z,10.02
2022-11-18T10:13:05.742Z,10.11
2022-11-18T10:16:23.804Z,10.14
2022-11-18T10:19:42.856Z,10.22
2022-11-18T10:22:52.398Z,10.25
2022-11-18T10:25:54.569Z,10.19
2022-11-18T10:28:56.042Z,10.21
2022-11-18T10:32:07.593Z,10.37
2022-11-18T10:35:25.233Z,10.41
2022-11-18T10:38:26.684Z,10.48
2022-11-18T10:41:28.201Z,10.52
2022-11-18T10:44:43.449Z,10.53
2022-11-18T10:47:56.733Z,10.47
2022-11-18T10:50:58.204Z,10.40
2022-11-18T10:54:13.388Z,10.48
2022-11-18T10:57:25.152Z,10.50
2022-11-18T11:00:43.408Z,10.59
2022-11-18T11:04:16.037Z,10.68
2022-11-18T11:07:33.035Z,10.60
2022-11-18T11:10:34.713Z,10.61
2022-11-18T11:13:43.146Z,10.58
2022-11-18T11:16:58.461Z,10.79
2022-11-18T11:20:18.267Z,10.79
2022-11-18T11:23:23.726Z,10.82
2022-11-18T11:30:12.829Z,10.95
2022-11-18T11:33:38.512Z,10.91
2022-11-18T11:36:45.723Z,10.94
2022-11-18T11:39:59.245Z,11.11
2022-11-18T11:43:24.551Z,11.14
2022-11-18T11:47:12.706Z,11.13
2022-11-18T11:50:29.966Z,11.19
2022-11-18T11:53:56.617Z,11.10
2022-11-18T11:57:09.871Z,11.22
2022-11-18T12:00:16.334Z,11.24
2022-11-18T12:03:48.771Z,11.26
2022-11-18T12:06:54.903Z,11.26
2022-11-18T12:10:02.271Z,11.24
2022-11-18T12:13:08.808Z,11.13
2022-11-18T12:16:36.457Z,11.34
2022-11-18T12:19:39.573Z,11.31
2022-11-18T12:23:09.064Z,11.33
2022-11-18T12:26:11.341Z,11.38
2022-11-18T12:29:23.549Z,11.41
2022-11-18T12:32:46.493Z,11.39
2022-11-18T12:35:50.966Z,11.31
2022-11-18T12:38:53.515Z,11.37
2022-11-18T12:42:21.966Z,11.37
2022-11-18T12:45:48.775Z,11.39
2022-11-18T12:48:50.196Z,11.38
2022-11-18T12:51:56.455Z,11.31
2022-11-18T12:55:01.075Z,11.32
2022-11-18T12:58:02.517Z,11.34
2022-11-18T13:01:10.591Z,11.36
2022-11-18T13:04:16.621Z,11.45
2022-11-18T13:07:37.925Z,11.52
2022-11-18T13:10:50.388Z,11.55
2022-11-18T13:14:15.195Z,11.62
2022-11-18T13:17:50.479Z,11.66
2022-11-18T13:20:57.594Z,11.69
2022-11-18T13:24:02.065Z,11.54
2022-11-18T13:27:04.897Z,11.45
2022-11-18T13:30:11.388Z,11.51
2022-11-18T13:33:12.972Z,11.45
2022-11-18T13:36:23.676Z,11.52
2022-11-18T13:39:31.017Z,11.53
2022-11-18T13:42:32.574Z,11.42
2022-11-18T13:45:34.712Z,11.48
2022-11-18T13:48:41.418Z,11.60
2022-11-18T13:51:43.097Z,11.62
2022-11-18T13:54:45.727Z,11.70
2022-11-18T13:57:50.589Z,11.61
2022-11-18T14:00:57.836Z,11.65
2022-11-18T14:04:03.255Z,11.69
2022-11-18T14:07:28.910Z,11.77
2022-11-18T14:10:42.647Z,11.84
2022-11-18T14:13:51.448Z,11.88
2022-11-18T14:16:52.856Z,11.94
2022-11-18T14:19:59.028Z,11.97
2022-11-18T14:23:03.202Z,11.99
2022-11-18T14:26:06.971Z,11.98
2022-11-18T14:29:21.329Z,11.99
2022-11-18T14:32:23.408Z,12.02
2022-11-18T14:35:24.816Z,12.19
2022-11-18T14:41:58.269Z,12.15
2022-11-18T14:44:59.655Z,12.10
2022-11-18T14:48:01.581Z,12.05
2022-11-18T14:51:03.173Z,12.02
2022-11-18T14:54:04.664Z,11.89
2022-11-18T14:57:06.304Z,11.95
2022-11-18T15:00:14.116Z,11.76
2022-11-18T15:03:16.284Z,11.73
2022-11-18T15:06:20.296Z,11.72
2022-11-18T15:09:21.768Z,11.70
2022-11-18T15:12:23.179Z,11.57
2022-11-18T15:15:24.980Z,11.65
2022-11-18T15:18:26.478Z,11.66
2022-11-18T15:21:28.708Z,11.48
2022-11-18T15:24:30.101Z,11.49
2022-11-18T15:27:31.604Z,11.35
2022-11-18T15:30:33.080Z,11.29
2022-11-18T15:33:34.544Z,11.30
2022-11-18T15:36:36.327Z,11.22
2022-11-18T15:39:37.837Z,11.18
2022-11-18T15:42:47.494Z,11.18
2022-11-18T15:45:59.608Z,11.03
2022-11-18T15:49:01.331Z,10.97
2022-11-18T15:52:03.084Z,10.94
2022-11-18T15:55:08.094Z,10.86
2022-11-18T15:58:09.848Z,10.86
2022-11-18T16:01:12.008Z,10.80
2022-11-18T16:04:15.961Z,10.74
2022-11-18T16:07:17.586Z,10.74
2022-11-18T16:10:38.028Z,10.71
2022-11-18T16:13:39.516Z,10.57
2022-11-18T16:16:42.565Z,10.55
2022-11-18T16:19:43.954Z,10.58
2022-11-18T16:22:45.444Z,10.65
2022-11-18T16:25:46.926Z,10.56
2022-11-18T16:28:48.879Z,10.58
2022-11-18T16:31:52.045Z,10.55
2022-11-18T16:34:58.058Z,10.56
2022-11-18T16:38:02.562Z,10.50
2022-11-18T16:41:23.991Z,10.47
2022-11-18T16:44:25.519Z,10.46
2022-11-18T16:47:26.986Z,10.60
2022-11-18T16:50:28.416Z,10.70
2022-11-18T16:53:29.819Z,10.67
2022-11-18T16:56:33.915Z,10.66
2022-11-18T16:59:36.640Z,10.65
2022-11-18T17:02:38.078Z,10.67
2022-11-18T17:05:40.585Z,10.64
2022-11-18T17:08:42.072Z,10.59
2022-11-18T17:11:43.554Z,10.59
2022-11-18T17:14:44.972Z,10.62
2022-11-18T17:17:46.344Z,10.70
2022-11-18T17:20:47.788Z,10.67
2022-11-18T17:23:50.013Z,10.72
2022-11-18T17:26:52.535Z,10.70
2022-11-18T17:29:55.889Z,10.74
2022-11-18T17:32:58.095Z,10.76
2022-11-18T17:36:01.339Z,10.78
2022-11-18T17:39:02.807Z,10.80
2022-11-18T17:42:30.643Z,10.79
2022-11-18T17:45:32.044Z,10.76
2022-11-18T17:48:33.636Z,10.74
2022-11-18T17:51:35.057Z,10.74
2022-11-18T17:54:36.597Z,10.69
2022-11-18T17:57:38.005Z,10.65
2022-11-18T18:00:40.242Z,10.60
2022-11-18T18:03:43.490Z,10.57
2022-11-18T18:06:45.049Z,10.52
2022-11-18T18:09:46.484Z,10.48
2022-11-18T18:13:07.063Z,10.48
2022-11-18T18:16:08.475Z,10.47
2022-11-18T18:19:11.536Z,10.45
2022-11-18T18:22:12.924Z,10.43
2022-11-18T18:25:14.621Z,10.44
2022-11-18T18:28:16.009Z,10.45
2022-11-18T18:31:18.081Z,10.46
2022-11-18T18:34:19.634Z,10.45
2022-11-18T18:37:21.164Z,10.46
2022-11-18T18:40:22.784Z,10.43
2022-11-18T18:43:24.180Z,10.29
2022-11-18T18:46:31.782Z,10.27
2022-11-18T18:49:33.217Z,10.29
2022-11-18T18:52:34.628Z,10.29
2022-11-18T18:55:39.305Z,10.32
2022-11-18T18:58:44.927Z,10.28
2022-11-18T19:01:46.503Z,10.30
2022-11-18T19:04:47.983Z,10.23
2022-11-18T19:07:49.436Z,10.26
2022-11-18T19:10:50.863Z,10.22
2022-11-18T19:13:52.335Z,10.16
2022-11-18T19:16:54.629Z,10.12
2022-11-18T19:20:15.046Z,10.06
2022-11-18T19:23:17.972Z,10.04
2022-11-18T19:26:20.152Z,10.03
2022-11-18T19:32:43.151Z,10.01
2022-11-18T19:35:44.596Z,9.98
2022-11-18T19:38:49.360Z,9.93
2022-11-18T19:41:50.793Z,9.86
2022-11-18T19:44:52.269Z,9.89
2022-11-18T19:47:53.693Z,9.88
2022-11-18T19:51:12.483Z,9.95
2022-11-18T19:54:13.942Z,9.94
2022-11-18T19:57:15.444Z,9.93
2022-11-18T20:00:17.474Z,9.92
2022-11-18T20:03:18.998Z,10.00
2022-11-18T20:06:21.949Z,9.93
2022-11-18T20:09:25.236Z,9.92
2022-11-18T20:12:28.415Z,9.80
2022-11-18T20:15:29.798Z,9.78
2022-11-18T20:18:31.671Z,9.82
2022-11-18T20:21:34.079Z,9.82
2022-11-18T20:24:35.526Z,9.84
2022-11-18T20:27:37.007Z,9.82
2022-11-18T20:30:39.424Z,9.83
2022-11-18T20:33:43.916Z,9.82
2022-11-18T20:36:46.502Z,9.81
2022-11-18T20:39:47.928Z,9.81
2022-11-18T20:43:07.874Z,9.82
2022-11-18T20:46:10.365Z,9.79
2022-11-18T20:49:11.746Z,9.79
2022-11-18T20:52:13.139Z,9.85
2022-11-18T20:55:15.769Z,9.88
2022-11-18T20:58:18.550Z,9.81
2022-11-18T21:01:25.599Z,9.68
2022-11-18T21:04:27.048Z,9.67
2022-11-18T21:07:28.749Z,9.69
2022-11-18T21:10:33.296Z,9.66
2022-11-18T21:13:54.319Z,9.70
2022-11-18T21:17:00.262Z,9.74
2022-11-18T21:20:21.645Z,9.68
2022-11-18T21:23:23.420Z,9.72
2022-11-18T21:26:26.572Z,9.72
2022-11-18T21:29:30.559Z,9.69
2022-11-18T21:32:32.081Z,9.69
2022-11-18T21:35:34.332Z,9.66
2022-11-18T21:38:35.760Z,9.66
2022-11-18T21:41:38.130Z,9.65
2022-11-18T21:44:39.739Z,9.56
2022-11-18T21:47:41.147Z,9.59
2022-11-18T21:50:42.526Z,9.58
2022-11-18T21:53:44.380Z,9.56
2022-11-18T21:56:45.841Z,9.52
2022-11-18T21:59:47.230Z,9.53
2022-11-18T22:02:48.679Z,9.51
2022-11-18T22:05:54.568Z,9.64
2022-11-18T22:08:56.431Z,9.47
2022-11-18T22:11:58.085Z,9.48
2022-11-18T22:14:59.634Z,9.36
2022-11-18T22:18:01.031Z,9.45
2022-11-18T22:21:05.119Z,9.52
2022-11-18T22:24:07.172Z,9.50
2022-11-18T22:27:11.504Z,9.53
2022-11-18T22:30:13.248Z,9.47
2022-11-18T22:33:14.836Z,9.42
2022-11-18T22:36:17.903Z,9.38
2022-11-18T22:39:19.646Z,9.35
2022-11-18T22:42:39.800Z,9.38
2022-11-18T22:45:41.186Z,9.26
2022-11-18T22:48:42.573Z,9.26
2022-11-18T22:51:43.998Z,9.36
2022-11-18T22:54:45.393Z,9.38
2022-11-18T22:57:46.859Z,9.42
2022-11-18T23:00:48.262Z,9.40
2022-11-18T23:03:52.955Z,9.36
2022-11-18T23:06:54.468Z,9.27
2022-11-18T23:09:55.907Z,9.32
2022-11-18T23:13:15.794Z,9.31
2022-11-18T23:16:17.539Z,9.41
2022-11-18T23:19:19.448Z,9.45
2022-11-18T23:22:21.089Z,9.41
2022-11-18T23:25:22.666Z,9.38
2022-11-18T23:28:24.079Z,9.35
2022-11-18T23:31:27.460Z,9.28
2022-11-18T23:34:28.848Z,9.35
2022-11-18T23:37:30.308Z,9.35
2022-11-18T23:40:31.737Z,9.29
2022-11-18T23:43:34.660Z,9.36
2022-11-18T23:46:36.050Z,9.37
2022-11-18T23:49:37.440Z,9.33
2022-11-18T23:52:41.735Z,9.28
2022-11-18T23:55:43.127Z,9.22
2022-11-18T23:58:47.198Z,9.23
